SAS47T ESSA-ESSV
Flight info
| Callsign | SAS47T |
|---|---|
| Flight time | 0h 29m |
| Altitude | 15000 |
| Route | BABAP T316 GOTAL |
| Aircraft | A21N/M-SDE3FGHIJ1J3J4J7M3P2RWXYZ/LB1D1 |
Departure
| Time | 2026-04-25 11:46 |
|---|---|
| Airport | Stockholm-Arlanda Airport (ESSA) |
Arrival
| Time | 2026-04-25 12:15 |
|---|---|
| Airport | Visby Airport (ESSV) |
| Time | Latitude | Longitude | Altitude | Speed | Heading |
|---|---|---|---|---|---|
| 2026-04-25 11:13 | 59.65240 | 17.92987 | 113 ft | 0 kts | 70° |
| 2026-04-25 11:33 | 59.65236 | 17.92963 | 117 ft | 4 kts | 70° |
| 2026-04-25 11:33 | 59.65226 | 17.92912 | 112 ft | 4 kts | 71° |
| 2026-04-25 11:34 | 59.65219 | 17.92861 | 113 ft | 4 kts | 82° |
| 2026-04-25 11:34 | 59.65220 | 17.92815 | 114 ft | 2 kts | 109° |
| 2026-04-25 11:34 | 59.65228 | 17.92770 | 115 ft | 4 kts | 109° |
| 2026-04-25 11:34 | 59.65236 | 17.92719 | 115 ft | 4 kts | 109° |
| 2026-04-25 11:35 | 59.65240 | 17.92696 | 114 ft | 3 kts | 109° |
| 2026-04-25 11:36 | 59.65240 | 17.92700 | 114 ft | 1 kts | 100° |
| 2026-04-25 11:36 | 59.65255 | 17.92719 | 112 ft | 4 kts | 348° |
| 2026-04-25 11:37 | 59.65265 | 17.92648 | 116 ft | 7 kts | 275° |
| 2026-04-25 11:37 | 59.65270 | 17.92534 | 117 ft | 10 kts | 275° |
| 2026-04-25 11:37 | 59.65243 | 17.92406 | 117 ft | 12 kts | 208° |
| 2026-04-25 11:37 | 59.65150 | 17.92364 | 117 ft | 15 kts | 190° |
| 2026-04-25 11:38 | 59.65040 | 17.92324 | 117 ft | 17 kts | 190° |
| 2026-04-25 11:38 | 59.64915 | 17.92279 | 114 ft | 19 kts | 190° |
| 2026-04-25 11:38 | 59.64777 | 17.92229 | 114 ft | 21 kts | 190° |
| 2026-04-25 11:38 | 59.64644 | 17.92182 | 117 ft | 20 kts | 190° |
| 2026-04-25 11:39 | 59.64498 | 17.92128 | 117 ft | 22 kts | 190° |
| 2026-04-25 11:39 | 59.64387 | 17.92089 | 119 ft | 17 kts | 190° |
| 2026-04-25 11:39 | 59.64311 | 17.92093 | 118 ft | 11 kts | 143° |
| 2026-04-25 11:39 | 59.64266 | 17.92241 | 121 ft | 14 kts | 117° |
| 2026-04-25 11:40 | 59.64216 | 17.92428 | 120 ft | 16 kts | 117° |
| 2026-04-25 11:40 | 59.64162 | 17.92636 | 118 ft | 18 kts | 117° |
| 2026-04-25 11:40 | 59.64101 | 17.92865 | 114 ft | 20 kts | 117° |
| 2026-04-25 11:40 | 59.64035 | 17.93115 | 117 ft | 21 kts | 117° |
| 2026-04-25 11:41 | 59.63987 | 17.93393 | 116 ft | 20 kts | 82° |
| 2026-04-25 11:41 | 59.64047 | 17.93660 | 116 ft | 22 kts | 57° |
| 2026-04-25 11:41 | 59.64133 | 17.93929 | 114 ft | 24 kts | 57° |
| 2026-04-25 11:41 | 59.64224 | 17.94215 | 109 ft | 25 kts | 57° |
| 2026-04-25 11:42 | 59.64320 | 17.94516 | 108 ft | 26 kts | 57° |
| 2026-04-25 11:42 | 59.64396 | 17.94763 | 109 ft | 19 kts | 71° |
| 2026-04-25 11:42 | 59.64386 | 17.95036 | 109 ft | 21 kts | 118° |
| 2026-04-25 11:42 | 59.64272 | 17.95227 | 111 ft | 23 kts | 168° |
| 2026-04-25 11:43 | 59.64104 | 17.95198 | 113 ft | 26 kts | 190° |
| 2026-04-25 11:43 | 59.63921 | 17.95132 | 115 ft | 28 kts | 191° |
| 2026-04-25 11:43 | 59.63725 | 17.95062 | 115 ft | 30 kts | 190° |
| 2026-04-25 11:43 | 59.63546 | 17.94996 | 122 ft | 21 kts | 190° |
| 2026-04-25 11:44 | 59.63393 | 17.94941 | 125 ft | 24 kts | 190° |
| 2026-04-25 11:44 | 59.63286 | 17.94909 | 128 ft | 13 kts | 173° |
| 2026-04-25 11:44 | 59.63250 | 17.95046 | 129 ft | 14 kts | 47° |
| 2026-04-25 11:44 | 59.63326 | 17.95179 | 126 ft | 15 kts | 42° |
| 2026-04-25 11:45 | 59.63406 | 17.95322 | 123 ft | 14 kts | 42° |
| 2026-04-25 11:45 | 59.63434 | 17.95362 | 125 ft | 8 kts | 24° |
| 2026-04-25 11:45 | 59.63682 | 17.95456 | 123 ft | 77 kts | 11° |
| 2026-04-25 11:45 | 59.64682 | 17.95826 | 605 ft | 112 kts | 10° |
| 2026-04-25 11:46 | 59.65189 | 17.96012 | 1175 ft | 107 kts | 7° |
| 2026-04-25 11:46 | 59.65909 | 17.96272 | 1815 ft | 111 kts | 3° |
| 2026-04-25 11:46 | 59.66735 | 17.96560 | 2205 ft | 133 kts | 5° |
| 2026-04-25 11:46 | 59.67729 | 17.97040 | 2733 ft | 160 kts | 21° |
| 2026-04-25 11:47 | 59.68528 | 17.98888 | 3215 ft | 205 kts | 64° |
| 2026-04-25 11:47 | 59.68826 | 18.01773 | 4120 ft | 219 kts | 72° |
| 2026-04-25 11:47 | 59.69115 | 18.04775 | 5130 ft | 224 kts | 71° |
| 2026-04-25 11:47 | 59.69455 | 18.07816 | 6167 ft | 228 kts | 71° |
| 2026-04-25 11:48 | 59.69830 | 18.10911 | 7140 ft | 234 kts | 70° |
| 2026-04-25 11:48 | 59.70228 | 18.14092 | 8116 ft | 241 kts | 69° |
| 2026-04-25 11:48 | 59.70631 | 18.17377 | 9025 ft | 254 kts | 73° |
| 2026-04-25 11:48 | 59.70915 | 18.21000 | 9621 ft | 277 kts | 77° |
| 2026-04-25 11:49 | 59.71192 | 18.24933 | 10133 ft | 300 kts | 77° |
| 2026-04-25 11:49 | 59.71493 | 18.29172 | 10691 ft | 321 kts | 78° |
| 2026-04-25 11:49 | 59.71810 | 18.33687 | 11376 ft | 337 kts | 81° |
| 2026-04-25 11:49 | 59.71737 | 18.38399 | 12246 ft | 349 kts | 96° |
| 2026-04-25 11:50 | 59.71101 | 18.43012 | 13183 ft | 356 kts | 114° |
| 2026-04-25 11:50 | 59.69707 | 18.47084 | 14032 ft | 359 kts | 136° |
| 2026-04-25 11:50 | 59.67737 | 18.50105 | 14876 ft | 360 kts | 152° |
| 2026-04-25 11:50 | 59.65471 | 18.52107 | 15702 ft | 356 kts | 171° |
| 2026-04-25 11:51 | 59.63037 | 18.52732 | 16575 ft | 352 kts | 184° |
| 2026-04-25 11:51 | 59.60574 | 18.52841 | 17449 ft | 356 kts | 186° |
| 2026-04-25 11:51 | 59.58076 | 18.52913 | 18259 ft | 360 kts | 185° |
| 2026-04-25 11:51 | 59.55555 | 18.53018 | 19031 ft | 363 kts | 185° |
| 2026-04-25 11:52 | 59.53026 | 18.53142 | 19817 ft | 366 kts | 185° |
| 2026-04-25 11:52 | 59.50468 | 18.53284 | 20552 ft | 370 kts | 185° |
| 2026-04-25 11:52 | 59.47892 | 18.53321 | 21248 ft | 372 kts | 187° |
| 2026-04-25 11:52 | 59.45290 | 18.53200 | 21941 ft | 376 kts | 187° |
| 2026-04-25 11:53 | 59.42659 | 18.53059 | 22364 ft | 380 kts | 188° |
| 2026-04-25 11:53 | 59.40027 | 18.52936 | 22510 ft | 371 kts | 188° |
| 2026-04-25 11:53 | 59.37537 | 18.52838 | 22521 ft | 356 kts | 189° |
| 2026-04-25 11:53 | 59.35069 | 18.52727 | 22519 ft | 354 kts | 189° |
| 2026-04-25 11:54 | 59.32604 | 18.52614 | 22519 ft | 354 kts | 189° |
| 2026-04-25 11:54 | 59.30148 | 18.52507 | 22515 ft | 354 kts | 189° |
| 2026-04-25 11:54 | 59.25221 | 18.52290 | 22512 ft | 354 kts | 189° |
| 2026-04-25 11:55 | 59.22761 | 18.52181 | 22505 ft | 352 kts | 189° |
| 2026-04-25 11:55 | 59.20339 | 18.52079 | 22260 ft | 346 kts | 189° |
| 2026-04-25 11:55 | 59.17946 | 18.51977 | 21910 ft | 342 kts | 189° |
| 2026-04-25 11:55 | 59.15573 | 18.51877 | 21480 ft | 340 kts | 189° |
| 2026-04-25 11:56 | 59.13211 | 18.51778 | 21017 ft | 338 kts | 189° |
| 2026-04-25 11:56 | 59.10862 | 18.51676 | 20599 ft | 336 kts | 190° |
| 2026-04-25 11:56 | 59.08530 | 18.51573 | 20196 ft | 334 kts | 190° |
| 2026-04-25 11:56 | 59.06211 | 18.51471 | 19813 ft | 333 kts | 190° |
| 2026-04-25 11:57 | 59.03904 | 18.51374 | 19442 ft | 331 kts | 190° |
| 2026-04-25 11:57 | 59.01637 | 18.51277 | 19066 ft | 330 kts | 189° |
| 2026-04-25 11:57 | 58.99341 | 18.51178 | 18690 ft | 329 kts | 189° |
| 2026-04-25 11:57 | 58.97046 | 18.51082 | 18315 ft | 329 kts | 189° |
| 2026-04-25 11:58 | 58.94758 | 18.50985 | 17970 ft | 328 kts | 189° |
| 2026-04-25 11:58 | 58.92478 | 18.50885 | 17586 ft | 328 kts | 189° |
| 2026-04-25 11:58 | 58.90188 | 18.50788 | 17194 ft | 328 kts | 189° |
| 2026-04-25 11:58 | 58.87910 | 18.50697 | 16818 ft | 327 kts | 189° |
| 2026-04-25 11:59 | 58.85633 | 18.50602 | 16448 ft | 327 kts | 189° |
| 2026-04-25 11:59 | 58.83362 | 18.50505 | 16059 ft | 324 kts | 189° |
| 2026-04-25 11:59 | 58.81121 | 18.50411 | 15757 ft | 320 kts | 189° |
| 2026-04-25 12:00 | 58.76713 | 18.50221 | 15137 ft | 317 kts | 189° |
| 2026-04-25 12:00 | 58.74507 | 18.50130 | 14822 ft | 316 kts | 188° |
| 2026-04-25 12:00 | 58.70111 | 18.49949 | 14173 ft | 315 kts | 188° |
| 2026-04-25 12:01 | 58.67918 | 18.49857 | 13848 ft | 315 kts | 188° |
| 2026-04-25 12:01 | 58.65727 | 18.49765 | 13525 ft | 315 kts | 188° |
| 2026-04-25 12:01 | 58.63542 | 18.49674 | 13188 ft | 314 kts | 187° |
| 2026-04-25 12:01 | 58.61357 | 18.49583 | 12831 ft | 313 kts | 187° |
| 2026-04-25 12:02 | 58.57018 | 18.49406 | 12176 ft | 310 kts | 187° |
| 2026-04-25 12:02 | 58.54860 | 18.49316 | 11820 ft | 309 kts | 187° |
| 2026-04-25 12:02 | 58.52742 | 18.49227 | 11508 ft | 308 kts | 187° |
| 2026-04-25 12:03 | 58.50602 | 18.49139 | 11192 ft | 307 kts | 187° |
| 2026-04-25 12:03 | 58.48462 | 18.49051 | 10914 ft | 307 kts | 187° |
| 2026-04-25 12:03 | 58.46325 | 18.48962 | 10647 ft | 307 kts | 187° |
| 2026-04-25 12:03 | 58.44191 | 18.48874 | 10384 ft | 306 kts | 187° |
| 2026-04-25 12:04 | 58.42067 | 18.48788 | 10129 ft | 305 kts | 186° |
| 2026-04-25 12:04 | 58.39950 | 18.48700 | 9875 ft | 304 kts | 186° |
| 2026-04-25 12:04 | 58.37831 | 18.48612 | 9625 ft | 304 kts | 186° |
| 2026-04-25 12:04 | 58.35721 | 18.48526 | 9347 ft | 302 kts | 186° |
| 2026-04-25 12:05 | 58.33619 | 18.48441 | 9025 ft | 301 kts | 186° |
| 2026-04-25 12:05 | 58.31552 | 18.48357 | 8703 ft | 301 kts | 186° |
| 2026-04-25 12:05 | 58.29466 | 18.48272 | 8373 ft | 300 kts | 186° |
| 2026-04-25 12:05 | 58.27378 | 18.48185 | 8051 ft | 299 kts | 185° |
| 2026-04-25 12:06 | 58.25298 | 18.48100 | 7734 ft | 298 kts | 185° |
| 2026-04-25 12:06 | 58.23232 | 18.48016 | 7443 ft | 296 kts | 185° |
| 2026-04-25 12:06 | 58.21172 | 18.47932 | 7136 ft | 296 kts | 185° |
| 2026-04-25 12:06 | 58.19112 | 18.47848 | 6802 ft | 296 kts | 185° |
| 2026-04-25 12:07 | 58.17057 | 18.47764 | 6469 ft | 295 kts | 185° |
| 2026-04-25 12:07 | 58.15005 | 18.47680 | 6138 ft | 293 kts | 184° |
| 2026-04-25 12:07 | 58.12975 | 18.47598 | 5807 ft | 289 kts | 184° |
| 2026-04-25 12:07 | 58.10968 | 18.47518 | 5473 ft | 288 kts | 184° |
| 2026-04-25 12:08 | 58.08958 | 18.47437 | 5159 ft | 288 kts | 184° |
| 2026-04-25 12:08 | 58.06964 | 18.47357 | 4979 ft | 286 kts | 184° |
| 2026-04-25 12:08 | 58.05007 | 18.47280 | 4955 ft | 282 kts | 184° |
| 2026-04-25 12:08 | 58.03038 | 18.47199 | 4438 ft | 286 kts | 184° |
| 2026-04-25 12:09 | 58.01043 | 18.47117 | 4000 ft | 286 kts | 184° |
| 2026-04-25 12:09 | 57.99060 | 18.47037 | 3626 ft | 284 kts | 184° |
| 2026-04-25 12:09 | 57.97090 | 18.46959 | 3231 ft | 282 kts | 184° |
| 2026-04-25 12:09 | 57.95138 | 18.46882 | 2878 ft | 278 kts | 185° |
| 2026-04-25 12:10 | 57.93205 | 18.46803 | 2547 ft | 277 kts | 185° |
| 2026-04-25 12:10 | 57.91275 | 18.46725 | 2222 ft | 277 kts | 185° |
| 2026-04-25 12:10 | 57.89350 | 18.46646 | 1907 ft | 275 kts | 184° |
| 2026-04-25 12:10 | 57.87467 | 18.46574 | 1777 ft | 263 kts | 184° |
| 2026-04-25 12:11 | 57.85716 | 18.46512 | 1763 ft | 247 kts | 185° |
| 2026-04-25 12:11 | 57.84052 | 18.46453 | 1769 ft | 231 kts | 185° |
| 2026-04-25 12:11 | 57.82478 | 18.46138 | 1778 ft | 225 kts | 197° |
| 2026-04-25 12:11 | 57.81035 | 18.45350 | 1780 ft | 205 kts | 206° |
| 2026-04-25 12:12 | 57.79775 | 18.44384 | 1834 ft | 193 kts | 207° |
| 2026-04-25 12:12 | 57.78948 | 18.43782 | 1836 ft | 193 kts | 207° |
| 2026-04-25 12:12 | 57.77273 | 18.42563 | 1809 ft | 190 kts | 207° |
| 2026-04-25 12:12 | 57.76091 | 18.41709 | 1792 ft | 175 kts | 208° |
| 2026-04-25 12:13 | 57.74970 | 18.40896 | 1783 ft | 172 kts | 208° |
| 2026-04-25 12:13 | 57.73868 | 18.40100 | 1671 ft | 165 kts | 208° |
| 2026-04-25 12:13 | 57.72838 | 18.39358 | 1459 ft | 146 kts | 208° |
| 2026-04-25 12:13 | 57.71928 | 18.38697 | 1223 ft | 138 kts | 208° |
| 2026-04-25 12:14 | 57.71042 | 18.38052 | 1016 ft | 136 kts | 208° |
| 2026-04-25 12:14 | 57.70175 | 18.37410 | 819 ft | 132 kts | 207° |
| 2026-04-25 12:14 | 57.69324 | 18.36798 | 623 ft | 131 kts | 205° |
| 2026-04-25 12:14 | 57.68474 | 18.36194 | 465 ft | 130 kts | 204° |
| 2026-04-25 12:15 | 57.67640 | 18.35598 | 303 ft | 130 kts | 205° |
| 2026-04-25 12:15 | 57.66798 | 18.34990 | 175 ft | 128 kts | 205° |
| 2026-04-25 12:15 | 57.66068 | 18.34460 | 162 ft | 88 kts | 200° |
| 2026-04-25 12:15 | 57.65689 | 18.34197 | 165 ft | 39 kts | 202° |
| 2026-04-25 12:16 | 57.65569 | 18.34137 | 164 ft | 7 kts | 185° |
| 2026-04-25 12:16 | 57.65568 | 18.34102 | 165 ft | 5 kts | 12° |
| 2026-04-25 12:16 | 57.65608 | 18.34134 | 165 ft | 8 kts | 24° |
| 2026-04-25 12:16 | 57.65668 | 18.34182 | 164 ft | 11 kts | 22° |
| 2026-04-25 12:17 | 57.65748 | 18.34241 | 164 ft | 14 kts | 21° |
| 2026-04-25 12:17 | 57.65841 | 18.34308 | 162 ft | 15 kts | 21° |
| 2026-04-25 12:17 | 57.65912 | 18.34357 | 162 ft | 7 kts | 11° |
| 2026-04-25 12:17 | 57.65963 | 18.34321 | 163 ft | 10 kts | 306° |
| 2026-04-25 12:18 | 57.65993 | 18.34190 | 164 ft | 8 kts | 290° |
| 2026-04-25 12:18 | 57.66007 | 18.34073 | 164 ft | 11 kts | 263° |
| 2026-04-25 12:18 | 57.65985 | 18.34026 | 164 ft | 5 kts | 212° |
| 2026-04-25 12:18 | 57.65973 | 18.33963 | 164 ft | 5 kts | 306° |
| 2026-04-25 12:19 | 57.66015 | 18.33925 | 164 ft | 0 kts | 338° |